sensor_id;sensor_type;location;lat;lon;timestamp;temperature;humidity
63013;DHT22;62113;45.624;11.700;2023-10-19T00:01:21;13.60;79.10
63013;DHT22;62113;45.624;11.700;2023-10-19T00:03:51;13.60;79.10
63013;DHT22;62113;45.624;11.700;2023-10-19T00:06:18;13.70;79.20
63013;DHT22;62113;45.624;11.700;2023-10-19T00:08:44;13.70;79.00
63013;DHT22;62113;45.624;11.700;2023-10-19T00:11:10;13.70;78.80
63013;DHT22;62113;45.624;11.700;2023-10-19T00:13:37;13.70;78.80
63013;DHT22;62113;45.624;11.700;2023-10-19T00:16:06;13.70;78.90
63013;DHT22;62113;45.624;11.700;2023-10-19T00:18:48;13.70;79.00
63013;DHT22;62113;45.624;11.700;2023-10-19T00:21:14;13.70;79.10
63013;DHT22;62113;45.624;11.700;2023-10-19T00:23:49;13.70;78.70
63013;DHT22;62113;45.624;11.700;2023-10-19T00:26:17;13.70;79.10
63013;DHT22;62113;45.624;11.700;2023-10-19T00:28:48;13.70;78.30
63013;DHT22;62113;45.624;11.700;2023-10-19T00:31:24;13.70;78.60
63013;DHT22;62113;45.624;11.700;2023-10-19T00:33:51;13.70;78.70
63013;DHT22;62113;45.624;11.700;2023-10-19T00:36:17;13.70;78.70
63013;DHT22;62113;45.624;11.700;2023-10-19T00:38:45;13.70;78.60
63013;DHT22;62113;45.624;11.700;2023-10-19T00:41:14;13.70;78.80
63013;DHT22;62113;45.624;11.700;2023-10-19T00:43:45;13.70;78.60
63013;DHT22;62113;45.624;11.700;2023-10-19T00:46:12;13.70;78.80
63013;DHT22;62113;45.624;11.700;2023-10-19T00:51:16;13.70;78.90
63013;DHT22;62113;45.624;11.700;2023-10-19T00:53:57;13.70;79.00
63013;DHT22;62113;45.624;11.700;2023-10-19T00:56:24;13.70;78.80
63013;DHT22;62113;45.624;11.700;2023-10-19T00:58:58;13.80;78.80
63013;DHT22;62113;45.624;11.700;2023-10-19T01:01:32;13.80;78.80
63013;DHT22;62113;45.624;11.700;2023-10-19T01:04:01;13.80;78.50
63013;DHT22;62113;45.624;11.700;2023-10-19T01:06:29;13.80;78.80
63013;DHT22;62113;45.624;11.700;2023-10-19T01:08:57;13.80;78.90
63013;DHT22;62113;45.624;11.700;2023-10-19T01:11:23;13.80;79.00
63013;DHT22;62113;45.624;11.700;2023-10-19T01:13:53;13.80;78.80
63013;DHT22;62113;45.624;11.700;2023-10-19T01:16:19;13.80;78.90
63013;DHT22;62113;45.624;11.700;2023-10-19T01:18:48;13.80;78.90
63013;DHT22;62113;45.624;11.700;2023-10-19T01:21:16;13.80;78.40
63013;DHT22;62113;45.624;11.700;2023-10-19T01:23:46;13.80;78.40
63013;DHT22;62113;45.624;11.700;2023-10-19T01:26:13;13.80;78.60
63013;DHT22;62113;45.624;11.700;2023-10-19T01:28:43;13.80;78.80
63013;DHT22;62113;45.624;11.700;2023-10-19T01:31:14;13.80;79.10
63013;DHT22;62113;45.624;11.700;2023-10-19T01:33:47;13.80;78.70
63013;DHT22;62113;45.624;11.700;2023-10-19T01:36:13;13.80;78.40
63013;DHT22;62113;45.624;11.700;2023-10-19T01:38:47;13.80;78.60
63013;DHT22;62113;45.624;11.700;2023-10-19T01:41:14;13.80;79.00
63013;DHT22;62113;45.624;11.700;2023-10-19T01:43:43;13.80;79.00
63013;DHT22;62113;45.624;11.700;2023-10-19T01:46:10;13.80;79.10
63013;DHT22;62113;45.624;11.700;2023-10-19T01:48:39;13.80;79.20
63013;DHT22;62113;45.624;11.700;2023-10-19T01:51:06;13.80;79.10
63013;DHT22;62113;45.624;11.700;2023-10-19T01:53:36;13.80;78.70
63013;DHT22;62113;45.624;11.700;2023-10-19T01:56:04;13.80;78.80
63013;DHT22;62113;45.624;11.700;2023-10-19T01:58:31;13.80;78.90
63013;DHT22;62113;45.624;11.700;2023-10-19T02:01:02;13.80;78.70
63013;DHT22;62113;45.624;11.700;2023-10-19T02:03:31;13.90;78.50
63013;DHT22;62113;45.624;11.700;2023-10-19T02:05:58;13.90;78.30
63013;DHT22;62113;45.624;11.700;2023-10-19T02:08:24;13.90;78.20
63013;DHT22;62113;45.624;11.700;2023-10-19T02:10:51;13.90;78.10
63013;DHT22;62113;45.624;11.700;2023-10-19T02:13:17;13.80;78.30
63013;DHT22;62113;45.624;11.700;2023-10-19T02:15:44;13.90;78.60
63013;DHT22;62113;45.624;11.700;2023-10-19T02:18:10;13.90;78.70
63013;DHT22;62113;45.624;11.700;2023-10-19T02:20:36;13.90;78.80
63013;DHT22;62113;45.624;11.700;2023-10-19T02:23:05;13.90;78.90
63013;DHT22;62113;45.624;11.700;2023-10-19T02:25:32;13.90;78.70
63013;DHT22;62113;45.624;11.700;2023-10-19T02:28:02;13.90;79.00
63013;DHT22;62113;45.624;11.700;2023-10-19T02:30:28;14.00;78.60
63013;DHT22;62113;45.624;11.700;2023-10-19T02:32:56;13.90;78.90
63013;DHT22;62113;45.624;11.700;2023-10-19T02:35:21;13.90;78.80
63013;DHT22;62113;45.624;11.700;2023-10-19T02:37:47;13.90;78.60
63013;DHT22;62113;45.624;11.700;2023-10-19T02:40:13;13.90;78.80
63013;DHT22;62113;45.624;11.700;2023-10-19T02:42:47;13.90;78.60
63013;DHT22;62113;45.624;11.700;2023-10-19T02:45:15;14.00;79.00
63013;DHT22;62113;45.624;11.700;2023-10-19T02:47:44;14.00;78.50
63013;DHT22;62113;45.624;11.700;2023-10-19T02:50:10;13.90;78.60
63013;DHT22;62113;45.624;11.700;2023-10-19T02:52:39;13.90;78.90
63013;DHT22;62113;45.624;11.700;2023-10-19T02:55:06;13.90;78.80
63013;DHT22;62113;45.624;11.700;2023-10-19T02:57:32;13.90;78.90
63013;DHT22;62113;45.624;11.700;2023-10-19T02:59:57;14.00;79.00
63013;DHT22;62113;45.624;11.700;2023-10-19T03:02:24;14.00;79.20
63013;DHT22;62113;45.624;11.700;2023-10-19T03:04:53;14.00;79.20
63013;DHT22;62113;45.624;11.700;2023-10-19T03:07:18;14.00;78.60
63013;DHT22;62113;45.624;11.700;2023-10-19T03:09:44;14.00;78.80
63013;DHT22;62113;45.624;11.700;2023-10-19T03:12:19;14.00;78.50
63013;DHT22;62113;45.624;11.700;2023-10-19T03:14:45;14.00;78.90
63013;DHT22;62113;45.624;11.700;2023-10-19T03:17:12;14.00;78.90
63013;DHT22;62113;45.624;11.700;2023-10-19T03:19:38;14.00;79.30
63013;DHT22;62113;45.624;11.700;2023-10-19T03:22:03;14.00;79.30
63013;DHT22;62113;45.624;11.700;2023-10-19T03:24:31;14.00;79.30
63013;DHT22;62113;45.624;11.700;2023-10-19T03:29:38;14.00;79.20
63013;DHT22;62113;45.624;11.700;2023-10-19T03:32:07;14.00;79.20
63013;DHT22;62113;45.624;11.700;2023-10-19T03:34:33;14.00;79.00
63013;DHT22;62113;45.624;11.700;2023-10-19T03:36:59;14.00;78.80
63013;DHT22;62113;45.624;11.700;2023-10-19T03:39:32;14.00;78.90
63013;DHT22;62113;45.624;11.700;2023-10-19T03:41:58;14.00;78.90
63013;DHT22;62113;45.624;11.700;2023-10-19T03:44:24;14.00;78.60
63013;DHT22;62113;45.624;11.700;2023-10-19T03:46:53;14.10;78.60
63013;DHT22;62113;45.624;11.700;2023-10-19T03:49:19;14.10;78.60
63013;DHT22;62113;45.624;11.700;2023-10-19T03:51:45;14.10;78.90
63013;DHT22;62113;45.624;11.700;2023-10-19T03:54:43;14.10;78.80
63013;DHT22;62113;45.624;11.700;2023-10-19T03:57:09;14.10;78.60
63013;DHT22;62113;45.624;11.700;2023-10-19T03:59:41;14.10;78.70
63013;DHT22;62113;45.624;11.700;2023-10-19T04:02:09;14.20;78.70
63013;DHT22;62113;45.624;11.700;2023-10-19T04:04:41;14.10;78.80
63013;DHT22;62113;45.624;11.700;2023-10-19T04:07:13;14.20;78.80
63013;DHT22;62113;45.624;11.700;2023-10-19T04:09:52;14.20;78.90
63013;DHT22;62113;45.624;11.700;2023-10-19T04:12:34;14.20;79.00
63013;DHT22;62113;45.624;11.700;2023-10-19T04:15:04;14.10;78.90
63013;DHT22;62113;45.624;11.700;2023-10-19T04:17:41;14.10;79.00
63013;DHT22;62113;45.624;11.700;2023-10-19T04:20:14;14.10;79.10
63013;DHT22;62113;45.624;11.700;2023-10-19T04:22:52;14.20;79.00
63013;DHT22;62113;45.624;11.700;2023-10-19T04:25:18;14.20;79.00
63013;DHT22;62113;45.624;11.700;2023-10-19T04:27:45;14.20;79.30
63013;DHT22;62113;45.624;11.700;2023-10-19T04:30:11;14.20;79.60
63013;DHT22;62113;45.624;11.700;2023-10-19T04:32:57;14.20;79.80
63013;DHT22;62113;45.624;11.700;2023-10-19T04:35:23;14.20;79.20
63013;DHT22;62113;45.624;11.700;2023-10-19T04:37:52;14.20;79.00
63013;DHT22;62113;45.624;11.700;2023-10-19T04:40:18;14.20;79.00
63013;DHT22;62113;45.624;11.700;2023-10-19T04:42:43;14.20;79.00
63013;DHT22;62113;45.624;11.700;2023-10-19T04:45:09;14.20;79.10
63013;DHT22;62113;45.624;11.700;2023-10-19T04:47:37;14.20;79.20
63013;DHT22;62113;45.624;11.700;2023-10-19T04:50:03;14.20;79.30
63013;DHT22;62113;45.624;11.700;2023-10-19T04:52:29;14.20;79.50
63013;DHT22;62113;45.624;11.700;2023-10-19T04:54:55;14.20;79.70
63013;DHT22;62113;45.624;11.700;2023-10-19T04:57:20;14.20;79.60
63013;DHT22;62113;45.624;11.700;2023-10-19T04:59:46;14.20;79.20
63013;DHT22;62113;45.624;11.700;2023-10-19T05:02:12;14.20;78.70
63013;DHT22;62113;45.624;11.700;2023-10-19T05:04:37;14.20;79.20
63013;DHT22;62113;45.624;11.700;2023-10-19T05:07:03;14.20;79.40
63013;DHT22;62113;45.624;11.700;2023-10-19T05:09:29;14.20;79.20
63013;DHT22;62113;45.624;11.700;2023-10-19T05:11:55;14.20;79.30
63013;DHT22;62113;45.624;11.700;2023-10-19T05:14:20;14.30;79.00
63013;DHT22;62113;45.624;11.700;2023-10-19T05:16:46;14.30;79.30
63013;DHT22;62113;45.624;11.700;2023-10-19T05:19:11;14.30;79.10
63013;DHT22;62113;45.624;11.700;2023-10-19T05:21:37;14.30;79.20
63013;DHT22;62113;45.624;11.700;2023-10-19T05:24:02;14.30;79.00
63013;DHT22;62113;45.624;11.700;2023-10-19T05:26:28;14.30;79.20
63013;DHT22;62113;45.624;11.700;2023-10-19T05:28:53;14.30;79.20
63013;DHT22;62113;45.624;11.700;2023-10-19T05:31:19;14.30;79.40
63013;DHT22;62113;45.624;11.700;2023-10-19T05:33:45;14.30;79.30
63013;DHT22;62113;45.624;11.700;2023-10-19T05:36:13;14.30;79.30
63013;DHT22;62113;45.624;11.700;2023-10-19T05:38:40;14.30;79.30
63013;DHT22;62113;45.624;11.700;2023-10-19T05:41:05;14.30;79.20
63013;DHT22;62113;45.624;11.700;2023-10-19T05:43:31;14.30;79.30
63013;DHT22;62113;45.624;11.700;2023-10-19T05:45:56;14.40;79.30
63013;DHT22;62113;45.624;11.700;2023-10-19T05:48:22;14.30;79.30
63013;DHT22;62113;45.624;11.700;2023-10-19T05:50:49;14.40;79.50
63013;DHT22;62113;45.624;11.700;2023-10-19T05:53:15;14.40;79.40
63013;DHT22;62113;45.624;11.700;2023-10-19T05:55:46;14.30;81.20
63013;DHT22;62113;45.624;11.700;2023-10-19T05:58:12;14.10;82.90
63013;DHT22;62113;45.624;11.700;2023-10-19T06:00:38;13.90;83.50
63013;DHT22;62113;45.624;11.700;2023-10-19T06:03:04;13.80;83.70
63013;DHT22;62113;45.624;11.700;2023-10-19T06:05:30;13.70;84.00
63013;DHT22;62113;45.624;11.700;2023-10-19T06:07:56;13.70;84.40
63013;DHT22;62113;45.624;11.700;2023-10-19T06:10:21;13.60;84.30
63013;DHT22;62113;45.624;11.700;2023-10-19T06:12:50;13.50;84.50
63013;DHT22;62113;45.624;11.700;2023-10-19T06:15:17;13.50;85.00
63013;DHT22;62113;45.624;11.700;2023-10-19T06:17:43;13.40;85.10
63013;DHT22;62113;45.624;11.700;2023-10-19T06:20:09;13.50;85.30
63013;DHT22;62113;45.624;11.700;2023-10-19T06:22:48;13.50;86.30
63013;DHT22;62113;45.624;11.700;2023-10-19T06:25:17;13.60;86.20
63013;DHT22;62113;45.624;11.700;2023-10-19T06:27:43;13.60;86.60
63013;DHT22;62113;45.624;11.700;2023-10-19T06:30:09;13.50;86.50
63013;DHT22;62113;45.624;11.700;2023-10-19T06:32:35;13.50;86.20
63013;DHT22;62113;45.624;11.700;2023-10-19T06:35:02;13.50;86.10
63013;DHT22;62113;45.624;11.700;2023-10-19T06:37:28;13.50;86.10
63013;DHT22;62113;45.624;11.700;2023-10-19T06:39:53;13.50;85.90
63013;DHT22;62113;45.624;11.700;2023-10-19T06:42:19;13.50;86.70
63013;DHT22;62113;45.624;11.700;2023-10-19T06:44:44;13.50;86.60
63013;DHT22;62113;45.624;11.700;2023-10-19T06:47:10;13.60;87.30
63013;DHT22;62113;45.624;11.700;2023-10-19T06:49:35;13.60;87.00
63013;DHT22;62113;45.624;11.700;2023-10-19T06:52:01;13.60;87.30
63013;DHT22;62113;45.624;11.700;2023-10-19T06:54:30;13.60;87.20
63013;DHT22;62113;45.624;11.700;2023-10-19T06:56:55;13.60;87.00
63013;DHT22;62113;45.624;11.700;2023-10-19T06:59:21;13.60;87.30
63013;DHT22;62113;45.624;11.700;2023-10-19T07:01:46;13.60;87.10
63013;DHT22;62113;45.624;11.700;2023-10-19T07:04:12;13.60;87.40
63013;DHT22;62113;45.624;11.700;2023-10-19T07:06:38;13.60;87.60
63013;DHT22;62113;45.624;11.700;2023-10-19T07:09:04;13.70;87.60
63013;DHT22;62113;45.624;11.700;2023-10-19T07:11:31;13.60;87.50
63013;DHT22;62113;45.624;11.700;2023-10-19T07:13:57;13.60;87.30
63013;DHT22;62113;45.624;11.700;2023-10-19T07:16:22;13.60;87.50
63013;DHT22;62113;45.624;11.700;2023-10-19T07:18:49;13.60;87.80
63013;DHT22;62113;45.624;11.700;2023-10-19T07:21:15;13.70;87.70
63013;DHT22;62113;45.624;11.700;2023-10-19T07:23:42;13.80;87.40
63013;DHT22;62113;45.624;11.700;2023-10-19T07:26:11;13.90;87.20
63013;DHT22;62113;45.624;11.700;2023-10-19T07:28:39;14.00;87.00
63013;DHT22;62113;45.624;11.700;2023-10-19T07:31:05;14.10;86.90
63013;DHT22;62113;45.624;11.700;2023-10-19T07:33:32;14.20;86.80
63013;DHT22;62113;45.624;11.700;2023-10-19T07:35:59;14.30;86.70
63013;DHT22;62113;45.624;11.700;2023-10-19T07:38:32;14.40;86.60
63013;DHT22;62113;45.624;11.700;2023-10-19T07:41:00;14.50;86.40
63013;DHT22;62113;45.624;11.700;2023-10-19T07:43:26;14.70;86.20
63013;DHT22;62113;45.624;11.700;2023-10-19T07:45:51;14.70;86.00
63013;DHT22;62113;45.624;11.700;2023-10-19T07:48:17;14.80;85.90
63013;DHT22;62113;45.624;11.700;2023-10-19T07:50:43;14.80;85.60
63013;DHT22;62113;45.624;11.700;2023-10-19T07:53:08;14.90;85.40
63013;DHT22;62113;45.624;11.700;2023-10-19T07:55:34;14.90;85.20
63013;DHT22;62113;45.624;11.700;2023-10-19T07:58:00;15.00;85.00
63013;DHT22;62113;45.624;11.700;2023-10-19T08:00:26;15.10;84.80
63013;DHT22;62113;45.624;11.700;2023-10-19T08:02:54;15.10;84.50
63013;DHT22;62113;45.624;11.700;2023-10-19T08:05:20;15.10;84.30
63013;DHT22;62113;45.624;11.700;2023-10-19T08:07:46;15.20;84.30
63013;DHT22;62113;45.624;11.700;2023-10-19T08:10:13;15.20;84.00
63013;DHT22;62113;45.624;11.700;2023-10-19T08:12:39;15.20;83.90
63013;DHT22;62113;45.624;11.700;2023-10-19T08:15:11;15.30;83.80
63013;DHT22;62113;45.624;11.700;2023-10-19T08:17:40;15.30;83.70
63013;DHT22;62113;45.624;11.700;2023-10-19T08:20:06;15.40;83.50
63013;DHT22;62113;45.624;11.700;2023-10-19T08:22:34;15.50;83.40
63013;DHT22;62113;45.624;11.700;2023-10-19T08:25:02;15.60;83.40
63013;DHT22;62113;45.624;11.700;2023-10-19T08:27:29;15.60;83.20
63013;DHT22;62113;45.624;11.700;2023-10-19T08:29:55;15.60;83.10
63013;DHT22;62113;45.624;11.700;2023-10-19T08:32:21;15.70;82.90
63013;DHT22;62113;45.624;11.700;2023-10-19T08:34:46;15.70;82.80
63013;DHT22;62113;45.624;11.700;2023-10-19T08:37:12;15.70;82.80
63013;DHT22;62113;45.624;11.700;2023-10-19T08:39:38;15.70;82.70
63013;DHT22;62113;45.624;11.700;2023-10-19T08:42:04;15.70;82.30
63013;DHT22;62113;45.624;11.700;2023-10-19T08:44:30;15.70;82.40
63013;DHT22;62113;45.624;11.700;2023-10-19T08:46:55;15.80;82.40
63013;DHT22;62113;45.624;11.700;2023-10-19T08:49:22;15.80;82.10
63013;DHT22;62113;45.624;11.700;2023-10-19T08:51:48;15.80;81.80
63013;DHT22;62113;45.624;11.700;2023-10-19T08:54:14;15.90;82.00
63013;DHT22;62113;45.624;11.700;2023-10-19T08:56:42;16.00;82.10
63013;DHT22;62113;45.624;11.700;2023-10-19T08:59:08;16.10;82.10
63013;DHT22;62113;45.624;11.700;2023-10-19T09:01:36;16.10;82.10
63013;DHT22;62113;45.624;11.700;2023-10-19T09:04:01;16.20;82.00
63013;DHT22;62113;45.624;11.700;2023-10-19T09:06:27;16.20;82.00
63013;DHT22;62113;45.624;11.700;2023-10-19T09:08:54;16.30;81.90
63013;DHT22;62113;45.624;11.700;2023-10-19T09:11:20;16.40;81.90
63013;DHT22;62113;45.624;11.700;2023-10-19T09:16:19;16.70;82.30
63013;DHT22;62113;45.624;11.700;2023-10-19T09:18:45;16.90;82.50
63013;DHT22;62113;45.624;11.700;2023-10-19T09:21:14;17.10;81.70
63013;DHT22;62113;45.624;11.700;2023-10-19T09:23:52;17.20;81.30
63013;DHT22;62113;45.624;11.700;2023-10-19T09:26:19;17.30;80.70
63013;DHT22;62113;45.624;11.700;2023-10-19T09:28:50;17.40;80.00
63013;DHT22;62113;45.624;11.700;2023-10-19T09:31:16;17.70;80.50
63013;DHT22;62113;45.624;11.700;2023-10-19T09:33:42;17.80;80.30
63013;DHT22;62113;45.624;11.700;2023-10-19T09:36:09;18.00;79.90
63013;DHT22;62113;45.624;11.700;2023-10-19T09:38:45;18.20;78.90
63013;DHT22;62113;45.624;11.700;2023-10-19T09:41:13;18.20;78.10
63013;DHT22;62113;45.624;11.700;2023-10-19T09:43:43;18.30;77.80
63013;DHT22;62113;45.624;11.700;2023-10-19T09:46:10;18.20;77.60
63013;DHT22;62113;45.624;11.700;2023-10-19T09:48:39;18.20;77.60
63013;DHT22;62113;45.624;11.700;2023-10-19T09:51:07;18.30;77.50
63013;DHT22;62113;45.624;11.700;2023-10-19T09:53:34;18.30;77.60
63013;DHT22;62113;45.624;11.700;2023-10-19T09:56:00;18.30;77.30
63013;DHT22;62113;45.624;11.700;2023-10-19T09:58:31;18.20;77.20
63013;DHT22;62113;45.624;11.700;2023-10-19T10:00:58;18.30;77.00
63013;DHT22;62113;45.624;11.700;2023-10-19T10:04:10;18.30;77.20
63013;DHT22;62113;45.624;11.700;2023-10-19T10:06:17;18.40;77.10
63013;DHT22;62113;45.624;11.700;2023-10-19T10:08:51;18.40;76.80
63013;DHT22;62113;45.624;11.700;2023-10-19T10:11:21;18.40;76.60
63013;DHT22;62113;45.624;11.700;2023-10-19T10:13:48;18.40;76.70
63013;DHT22;62113;45.624;11.700;2023-10-19T10:16:17;18.40;76.30
63013;DHT22;62113;45.624;11.700;2023-10-19T10:18:43;18.30;76.30
63013;DHT22;62113;45.624;11.700;2023-10-19T10:21:11;18.30;76.30
63013;DHT22;62113;45.624;11.700;2023-10-19T10:23:47;18.20;76.10
63013;DHT22;62113;45.624;11.700;2023-10-19T10:26:14;18.20;76.10
63013;DHT22;62113;45.624;11.700;2023-10-19T10:28:40;18.10;76.20
63013;DHT22;62113;45.624;11.700;2023-10-19T10:31:12;18.00;76.70
63013;DHT22;62113;45.624;11.700;2023-10-19T10:33:42;17.90;77.10
63013;DHT22;62113;45.624;11.700;2023-10-19T10:36:10;17.80;77.60
63013;DHT22;62113;45.624;11.700;2023-10-19T10:38:36;17.90;77.80
63013;DHT22;62113;45.624;11.700;2023-10-19T10:41:02;18.00;78.10
63013;DHT22;62113;45.624;11.700;2023-10-19T10:43:28;17.90;78.80
63013;DHT22;62113;45.624;11.700;2023-10-19T10:46:03;17.80;80.40
63013;DHT22;62113;45.624;11.700;2023-10-19T10:48:29;17.70;81.10
63013;DHT22;62113;45.624;11.700;2023-10-19T10:50:55;17.60;81.80
63013;DHT22;62113;45.624;11.700;2023-10-19T10:53:22;17.50;82.00
63013;DHT22;62113;45.624;11.700;2023-10-19T10:55:48;17.40;82.20
63013;DHT22;62113;45.624;11.700;2023-10-19T10:58:17;17.30;81.90
63013;DHT22;62113;45.624;11.700;2023-10-19T11:00:43;17.20;82.30
63013;DHT22;62113;45.624;11.700;2023-10-19T11:03:09;17.20;82.80
63013;DHT22;62113;45.624;11.700;2023-10-19T11:05:38;17.20;83.00
63013;DHT22;62113;45.624;11.700;2023-10-19T11:10:29;17.00;84.10
63013;DHT22;62113;45.624;11.700;2023-10-19T11:13:05;17.10;83.90
63013;DHT22;62113;45.624;11.700;2023-10-19T11:15:34;17.10;83.90
63013;DHT22;62113;45.624;11.700;2023-10-19T11:18:00;17.00;83.60
63013;DHT22;62113;45.624;11.700;2023-10-19T11:20:26;17.00;84.00
63013;DHT22;62113;45.624;11.700;2023-10-19T11:22:55;17.00;83.90
63013;DHT22;62113;45.624;11.700;2023-10-19T11:25:25;16.90;84.10
63013;DHT22;62113;45.624;11.700;2023-10-19T11:27:54;17.00;83.70
63013;DHT22;62113;45.624;11.700;2023-10-19T11:30:23;17.10;83.40
63013;DHT22;62113;45.624;11.700;2023-10-19T11:32:49;17.10;83.30
63013;DHT22;62113;45.624;11.700;2023-10-19T11:35:21;17.20;83.20
63013;DHT22;62113;45.624;11.700;2023-10-19T11:37:48;17.30;82.60
63013;DHT22;62113;45.624;11.700;2023-10-19T11:40:14;17.40;82.60
63013;DHT22;62113;45.624;11.700;2023-10-19T11:42:39;17.50;82.70
63013;DHT22;62113;45.624;11.700;2023-10-19T11:45:05;17.50;82.40
63013;DHT22;62113;45.624;11.700;2023-10-19T11:47:31;17.60;82.10
63013;DHT22;62113;45.624;11.700;2023-10-19T11:49:57;17.70;81.90
63013;DHT22;62113;45.624;11.700;2023-10-19T11:52:22;17.70;81.80
63013;DHT22;62113;45.624;11.700;2023-10-19T11:54:48;17.70;81.60
63013;DHT22;62113;45.624;11.700;2023-10-19T11:57:14;17.70;81.40
63013;DHT22;62113;45.624;11.700;2023-10-19T11:59:39;17.80;81.30
63013;DHT22;62113;45.624;11.700;2023-10-19T12:02:06;17.80;81.10
63013;DHT22;62113;45.624;11.700;2023-10-19T12:04:32;17.80;81.00
63013;DHT22;62113;45.624;11.700;2023-10-19T12:07:01;17.80;81.00
63013;DHT22;62113;45.624;11.700;2023-10-19T12:09:28;17.80;81.00
63013;DHT22;62113;45.624;11.700;2023-10-19T12:11:53;17.90;80.80
63013;DHT22;62113;45.624;11.700;2023-10-19T12:14:19;17.90;80.70
63013;DHT22;62113;45.624;11.700;2023-10-19T12:16:46;17.90;80.60
63013;DHT22;62113;45.624;11.700;2023-10-19T12:19:12;17.80;80.50
63013;DHT22;62113;45.624;11.700;2023-10-19T12:21:39;17.80;80.60
63013;DHT22;62113;45.624;11.700;2023-10-19T12:24:07;17.80;80.50
63013;DHT22;62113;45.624;11.700;2023-10-19T12:26:33;17.80;80.70
63013;DHT22;62113;45.624;11.700;2023-10-19T12:28:58;17.80;80.70
63013;DHT22;62113;45.624;11.700;2023-10-19T12:31:24;17.80;80.50
63013;DHT22;62113;45.624;11.700;2023-10-19T12:33:50;17.90;81.10
63013;DHT22;62113;45.624;11.700;2023-10-19T12:36:16;17.90;80.70
63013;DHT22;62113;45.624;11.700;2023-10-19T12:38:56;17.80;80.70
63013;DHT22;62113;45.624;11.700;2023-10-19T12:41:22;17.80;80.60
63013;DHT22;62113;45.624;11.700;2023-10-19T12:43:49;17.90;80.60
63013;DHT22;62113;45.624;11.700;2023-10-19T12:46:17;17.90;80.50
63013;DHT22;62113;45.624;11.700;2023-10-19T12:48:44;17.90;80.50
63013;DHT22;62113;45.624;11.700;2023-10-19T12:51:12;17.90;80.10
63013;DHT22;62113;45.624;11.700;2023-10-19T12:53:38;17.90;80.20
63013;DHT22;62113;45.624;11.700;2023-10-19T12:56:04;17.90;80.10
63013;DHT22;62113;45.624;11.700;2023-10-19T12:58:31;17.90;80.10
63013;DHT22;62113;45.624;11.700;2023-10-19T13:00:57;17.90;80.10
63013;DHT22;62113;45.624;11.700;2023-10-19T13:03:23;17.90;80.10
63013;DHT22;62113;45.624;11.700;2023-10-19T13:05:52;18.00;80.00
63013;DHT22;62113;45.624;11.700;2023-10-19T13:08:18;17.90;80.00
63013;DHT22;62113;45.624;11.700;2023-10-19T13:10:46;18.00;79.80
63013;DHT22;62113;45.624;11.700;2023-10-19T13:13:13;18.00;79.90
63013;DHT22;62113;45.624;11.700;2023-10-19T13:15:43;17.90;80.00
63013;DHT22;62113;45.624;11.700;2023-10-19T13:18:10;17.90;79.90
63013;DHT22;62113;45.624;11.700;2023-10-19T13:20:36;17.90;79.80
63013;DHT22;62113;45.624;11.700;2023-10-19T13:23:03;17.80;79.70
63013;DHT22;62113;45.624;11.700;2023-10-19T13:25:32;17.80;79.80
63013;DHT22;62113;45.624;11.700;2023-10-19T13:28:06;17.80;79.80
63013;DHT22;62113;45.624;11.700;2023-10-19T13:30:37;17.80;79.90
63013;DHT22;62113;45.624;11.700;2023-10-19T13:33:06;17.70;80.20
63013;DHT22;62113;45.624;11.700;2023-10-19T13:35:35;17.70;80.40
63013;DHT22;62113;45.624;11.700;2023-10-19T13:38:01;17.70;80.40
63013;DHT22;62113;45.624;11.700;2023-10-19T13:40:27;17.60;80.40
63013;DHT22;62113;45.624;11.700;2023-10-19T13:42:56;17.60;80.40
63013;DHT22;62113;45.624;11.700;2023-10-19T13:45:21;17.60;80.60
63013;DHT22;62113;45.624;11.700;2023-10-19T13:47:47;17.60;80.60
63013;DHT22;62113;45.624;11.700;2023-10-19T13:50:12;17.60;80.70
63013;DHT22;62113;45.624;11.700;2023-10-19T13:52:38;17.50;80.50
63013;DHT22;62113;45.624;11.700;2023-10-19T13:55:05;17.50;80.90
63013;DHT22;62113;45.624;11.700;2023-10-19T13:57:32;17.60;80.90
63013;DHT22;62113;45.624;11.700;2023-10-19T13:59:58;17.50;80.90
63013;DHT22;62113;45.624;11.700;2023-10-19T14:02:23;17.50;81.00
63013;DHT22;62113;45.624;11.700;2023-10-19T14:04:50;17.50;81.00
63013;DHT22;62113;45.624;11.700;2023-10-19T14:07:17;17.50;81.10
63013;DHT22;62113;45.624;11.700;2023-10-19T14:09:42;17.50;80.90
63013;DHT22;62113;45.624;11.700;2023-10-19T14:12:08;17.50;81.10
63013;DHT22;62113;45.624;11.700;2023-10-19T14:14:34;17.40;81.20
63013;DHT22;62113;45.624;11.700;2023-10-19T14:17:00;17.40;81.30
63013;DHT22;62113;45.624;11.700;2023-10-19T14:19:26;17.40;81.30
63013;DHT22;62113;45.624;11.700;2023-10-19T14:21:51;17.40;81.40
63013;DHT22;62113;45.624;11.700;2023-10-19T14:24:18;17.40;81.40
63013;DHT22;62113;45.624;11.700;2023-10-19T14:26:46;17.40;81.50
63013;DHT22;62113;45.624;11.700;2023-10-19T14:29:12;17.40;81.40
63013;DHT22;62113;45.624;11.700;2023-10-19T14:31:39;17.40;81.40
63013;DHT22;62113;45.624;11.700;2023-10-19T14:34:04;17.30;81.60
63013;DHT22;62113;45.624;11.700;2023-10-19T14:36:30;17.30;81.60
63013;DHT22;62113;45.624;11.700;2023-10-19T14:38:55;17.30;81.70
63013;DHT22;62113;45.624;11.700;2023-10-19T14:41:21;17.30;81.80
63013;DHT22;62113;45.624;11.700;2023-10-19T14:43:46;17.30;81.90
63013;DHT22;62113;45.624;11.700;2023-10-19T14:46:12;17.30;81.90
63013;DHT22;62113;45.624;11.700;2023-10-19T14:48:38;17.30;81.90
63013;DHT22;62113;45.624;11.700;2023-10-19T14:51:04;17.30;82.00
63013;DHT22;62113;45.624;11.700;2023-10-19T14:53:30;17.30;82.00
63013;DHT22;62113;45.624;11.700;2023-10-19T14:55:56;17.30;82.20
63013;DHT22;62113;45.624;11.700;2023-10-19T14:58:24;17.30;82.00
63013;DHT22;62113;45.624;11.700;2023-10-19T15:00:54;17.30;82.10
63013;DHT22;62113;45.624;11.700;2023-10-19T15:03:20;17.20;82.20
63013;DHT22;62113;45.624;11.700;2023-10-19T15:05:49;17.30;82.20
63013;DHT22;62113;45.624;11.700;2023-10-19T15:08:14;17.20;82.10
63013;DHT22;62113;45.624;11.700;2023-10-19T15:10:40;17.20;82.10
63013;DHT22;62113;45.624;11.700;2023-10-19T15:13:07;17.20;82.10
63013;DHT22;62113;45.624;11.700;2023-10-19T15:15:32;17.30;82.20
63013;DHT22;62113;45.624;11.700;2023-10-19T15:17:58;17.20;82.10
63013;DHT22;62113;45.624;11.700;2023-10-19T15:20:24;17.30;82.20
63013;DHT22;62113;45.624;11.700;2023-10-19T15:22:50;17.20;82.20
63013;DHT22;62113;45.624;11.700;2023-10-19T15:25:16;17.20;82.10
63013;DHT22;62113;45.624;11.700;2023-10-19T15:27:45;17.30;82.10